Time;durP1;ratioP1;P1;durP2;ratioP2;P2;SDS_P1;SDS_P2;PMS_P1;PMS_P2;Temp;Humidity;BMP_temperature;BMP_pressure;BME280_temperature;BME280_humidity;BME280_pressure;Samples;Min_cycle;Max_cycle;Signal;HPM_P1;HPM_P2
2023/10/24 00:00:59;;;;;;;17.30;10.38;;;;;;;9.60;100.00;95885.84;5032399;28;20556;-70
2023/10/24 00:03:25;;;;;;;13.32;9.45;;;;;;;9.63;100.00;95876.88;5020923;28;20115;-69
2023/10/24 00:05:52;;;;;;;17.02;10.38;;;;;;;9.65;100.00;95863.63;5025963;28;20045;-70
2023/10/24 00:08:17;;;;;;;16.08;9.73;;;;;;;9.90;100.00;95866.50;5019614;28;20048;-70
2023/10/24 00:10:43;;;;;;;16.58;9.27;;;;;;;9.82;100.00;95871.16;5025140;28;20606;-70
2023/10/24 00:13:09;;;;;;;14.93;8.80;;;;;;;9.79;100.00;95879.34;5020813;28;20107;-70
2023/10/24 00:15:34;;;;;;;14.88;8.98;;;;;;;9.86;100.00;95873.91;5023810;28;20041;-69
2023/10/24 00:18:00;;;;;;;13.65;8.68;;;;;;;9.95;100.00;95853.25;5024203;28;20048;-70
2023/10/24 00:20:25;;;;;;;13.18;8.65;;;;;;;9.99;100.00;95869.69;5019482;28;20037;-69
2023/10/24 00:22:51;;;;;;;14.60;8.32;;;;;;;10.00;100.00;95841.16;5025630;28;20480;-69
2023/10/24 00:25:16;;;;;;;10.82;8.18;;;;;;;9.95;100.00;95833.31;5020396;28;20045;-70
2023/10/24 00:27:41;;;;;;;12.60;9.32;;;;;;;9.84;100.00;95836.00;5024228;28;20042;-70
2023/10/24 00:30:07;;;;;;;14.88;9.50;;;;;;;9.78;100.00;95837.53;5019125;28;20048;-69
2023/10/24 00:32:32;;;;;;;14.05;9.18;;;;;;;9.84;100.00;95843.44;5025001;28;20113;-71
2023/10/24 00:34:58;;;;;;;16.77;9.95;;;;;;;9.82;100.00;95852.00;5025749;28;20373;-71
2023/10/24 00:37:23;;;;;;;14.63;10.05;;;;;;;9.99;100.00;95852.47;5018613;28;20106;-71
2023/10/24 00:39:49;;;;;;;12.45;9.02;;;;;;;9.94;100.00;95829.81;5024566;28;20108;-70
2023/10/24 00:42:14;;;;;;;14.23;9.55;;;;;;;9.91;100.00;95836.03;5002148;28;20072;-71
2023/10/24 00:44:40;;;;;;;15.57;9.90;;;;;;;9.86;100.00;95844.59;5025368;28;20349;-71
2023/10/24 00:47:05;;;;;;;16.23;10.45;;;;;;;9.89;100.00;95854.00;5002115;28;20124;-71
2023/10/24 00:49:32;;;;;;;14.68;9.52;;;;;;;9.82;100.00;95856.69;5025989;28;20045;-71
2023/10/24 00:51:58;;;;;;;15.05;9.90;;;;;;;9.80;100.00;95842.63;5028879;28;20046;-70
2023/10/24 00:54:25;;;;;;;16.13;10.10;;;;;;;9.84;100.00;95849.66;5038647;28;20537;-70
2023/10/24 00:56:51;;;;;;;15.48;9.00;;;;;;;9.82;100.00;95852.00;5028946;28;20048;-69
2023/10/24 00:59:19;;;;;;;12.57;9.25;;;;;;;9.77;100.00;95853.16;5019827;28;20056;-70
2023/10/24 01:01:45;;;;;;;12.27;9.05;;;;;;;9.85;100.00;95840.31;5012510;28;20542;-71
2023/10/24 01:04:12;;;;;;;11.93;8.65;;;;;;;9.89;100.00;95851.28;5016630;28;20045;-70
2023/10/24 01:06:38;;;;;;;11.93;9.10;;;;;;;9.92;100.00;95858.69;5022631;28;20041;-70
2023/10/24 01:09:03;;;;;;;12.70;8.50;;;;;;;9.93;100.00;95843.88;5020823;28;20045;-71
2023/10/24 01:11:29;;;;;;;13.65;8.82;;;;;;;9.94;100.00;95831.78;5021629;28;20037;-71
2023/10/24 01:13:56;;;;;;;15.68;9.57;;;;;;;9.57;100.00;95828.03;5025243;28;20045;-72
2023/10/24 01:16:21;;;;;;;17.88;9.77;;;;;;;9.58;100.00;95826.09;5020982;28;20052;-70
2023/10/24 01:18:47;;;;;;;14.05;8.95;;;;;;;9.71;100.00;95816.41;5013182;28;20497;-69
2023/10/24 01:21:12;;;;;;;13.13;8.95;;;;;;;9.77;100.00;95817.59;5019064;28;20041;-70
2023/10/24 01:23:38;;;;;;;15.75;9.30;;;;;;;9.78;100.00;95821.13;5006799;28;20045;-69
2023/10/24 01:26:06;;;;;;;15.55;8.43;;;;;;;10.02;100.00;95791.53;5027842;28;20037;-70
2023/10/24 01:28:31;;;;;;;13.77;8.20;;;;;;;9.96;100.00;95791.13;5024536;28;20049;-69
2023/10/24 01:30:57;;;;;;;12.48;8.73;;;;;;;9.73;100.00;95794.16;5018788;28;20033;-69
2023/10/24 01:33:22;;;;;;;17.17;8.90;;;;;;;9.41;100.00;95799.44;5020361;28;20081;-69
2023/10/24 01:35:48;;;;;;;20.35;9.70;;;;;;;9.12;100.00;95802.75;5030424;28;20389;-71
2023/10/24 01:38:14;;;;;;;17.27;10.40;;;;;;;9.06;100.00;95798.81;5028296;28;20060;-71
2023/10/24 01:40:39;;;;;;;17.33;11.18;;;;;;;9.07;100.00;95794.88;5028837;28;20067;-72
2023/10/24 01:43:05;;;;;;;16.92;10.93;;;;;;;9.07;100.00;95791.38;5025164;28;20041;-72
2023/10/24 01:45:30;;;;;;;17.55;11.07;;;;;;;9.33;100.00;95804.06;5036886;28;20447;-71
2023/10/24 01:47:55;;;;;;;17.42;10.35;;;;;;;9.35;100.00;95794.31;5031282;28;20041;-72
2023/10/24 01:50:21;;;;;;;18.95;10.43;;;;;;;9.32;100.00;95797.03;5038656;28;20037;-71
2023/10/24 01:52:46;;;;;;;17.45;10.18;;;;;;;9.26;100.00;95793.88;5034064;28;20049;-71
2023/10/24 01:55:12;;;;;;;14.90;9.82;;;;;;;9.23;100.00;95774.72;5028018;28;20056;-70
2023/10/24 01:57:38;;;;;;;20.98;9.85;;;;;;;9.43;100.00;95753.38;5037590;28;20045;-70
2023/10/24 02:00:04;;;;;;;13.65;9.15;;;;;;;9.45;100.00;95759.22;5012452;28;20067;-71
2023/10/24 02:02:29;;;;;;;14.80;9.50;;;;;;;9.47;100.00;95756.91;5043733;28;20041;-70
2023/10/24 02:04:55;;;;;;;20.05;9.05;;;;;;;9.62;100.00;95764.00;5035845;28;20038;-69
2023/10/24 02:07:20;;;;;;;15.43;8.80;;;;;;;9.54;100.00;95757.75;5023374;28;20034;-69
2023/10/24 02:09:46;;;;;;;11.23;8.20;;;;;;;9.50;100.00;95748.72;5030644;28;20183;-70
2023/10/24 02:12:11;;;;;;;10.93;7.70;;;;;;;9.60;100.00;95740.94;5018277;28;20106;-70
2023/10/24 02:14:37;;;;;;;12.80;8.05;;;;;;;9.42;100.00;95740.84;5024351;28;20041;-70
2023/10/24 02:17:03;;;;;;;15.75;7.45;;;;;;;9.16;100.00;95739.94;5019964;28;20052;-71
2023/10/24 02:19:29;;;;;;;11.88;8.65;;;;;;;8.92;100.00;95747.56;5021040;28;20107;-71
2023/10/24 02:21:54;;;;;;;15.40;8.82;;;;;;;8.84;100.00;95751.44;5023642;28;20038;-70
2023/10/24 02:24:20;;;;;;;15.35;8.90;;;;;;;8.85;100.00;95750.25;5022968;28;20037;-70
2023/10/24 02:26:45;;;;;;;11.32;8.55;;;;;;;8.91;100.00;95745.22;5022311;28;20156;-70
2023/10/24 02:29:10;;;;;;;15.80;8.73;;;;;;;9.04;100.00;95757.44;5025630;28;20116;-71
2023/10/24 02:31:36;;;;;;;12.63;8.68;;;;;;;9.01;100.00;95743.75;5021938;28;20034;-70
2023/10/24 02:34:02;;;;;;;18.27;8.90;;;;;;;8.96;100.00;95737.47;5021916;28;20479;-70
2023/10/24 02:36:28;;;;;;;19.45;9.77;;;;;;;8.90;100.00;95725.34;5021702;28;20045;-70
2023/10/24 02:38:53;;;;;;;16.27;8.57;;;;;;;8.85;100.00;95725.69;5024016;28;20088;-70
2023/10/24 02:41:18;;;;;;;12.00;8.82;;;;;;;8.89;100.00;95725.72;5016777;28;20029;-70
2023/10/24 02:43:44;;;;;;;15.63;8.95;;;;;;;8.91;100.00;95720.66;5022002;28;20044;-71
2023/10/24 02:46:09;;;;;;;16.15;9.50;;;;;;;8.91;100.00;95721.44;5017995;28;20063;-69
2023/10/24 02:48:35;;;;;;;12.70;8.18;;;;;;;8.98;100.00;95720.69;5009756;28;20077;-69
2023/10/24 02:51:01;;;;;;;14.30;8.15;;;;;;;9.08;100.00;95724.69;5036670;28;20049;-69
2023/10/24 02:53:26;;;;;;;16.02;9.27;;;;;;;9.11;100.00;95729.34;5037176;28;20041;-70
2023/10/24 02:55:52;;;;;;;17.05;8.00;;;;;;;9.09;100.00;95734.41;5024638;28;20045;-70
2023/10/24 02:58:18;;;;;;;13.23;8.48;;;;;;;9.12;100.00;95731.72;4997349;28;20049;-70
2023/10/24 03:00:44;;;;;;;13.98;8.23;;;;;;;8.92;100.00;95736.66;4995884;28;20049;-71
2023/10/24 03:03:11;;;;;;;15.07;8.15;;;;;;;8.81;100.00;95741.25;5027736;28;20123;-70
2023/10/24 03:05:37;;;;;;;14.30;8.73;;;;;;;8.87;100.00;95745.19;5006052;28;20037;-70
2023/10/24 03:08:03;;;;;;;11.20;8.10;;;;;;;8.92;100.00;95738.59;5002922;28;20040;-71
2023/10/24 03:10:29;;;;;;;12.48;8.27;;;;;;;8.99;100.00;95744.91;5023303;28;20046;-70
2023/10/24 03:12:55;;;;;;;16.83;8.52;;;;;;;9.05;100.00;95752.75;5034294;28;20388;-71
2023/10/24 03:15:20;;;;;;;16.05;8.82;;;;;;;8.82;100.00;95744.75;5033677;28;20195;-71
2023/10/24 03:17:46;;;;;;;9.63;7.30;;;;;;;9.02;100.00;95728.91;5028167;28;20056;-71
2023/10/24 03:20:11;;;;;;;15.57;8.13;;;;;;;9.00;100.00;95734.75;5025757;28;20048;-70
2023/10/24 03:22:37;;;;;;;16.63;8.50;;;;;;;8.82;100.00;95720.19;5015131;28;20045;-71
2023/10/24 03:25:03;;;;;;;10.85;7.85;;;;;;;8.69;100.00;95716.97;5027556;28;20039;-71
2023/10/24 03:27:29;;;;;;;14.18;7.75;;;;;;;8.79;100.00;95719.78;5012438;28;20081;-70
2023/10/24 03:29:54;;;;;;;11.43;7.57;;;;;;;8.85;100.00;95720.22;5016408;28;20075;-70
2023/10/24 03:32:20;;;;;;;17.15;7.75;;;;;;;8.86;100.00;95721.00;5041163;28;20245;-72
2023/10/24 03:34:46;;;;;;;11.68;7.75;;;;;;;8.66;100.00;95704.06;5052222;28;20045;-70
2023/10/24 03:37:11;;;;;;;17.52;8.05;;;;;;;8.74;100.00;95690.09;5018128;28;20037;-69
2023/10/24 03:39:37;;;;;;;14.45;7.93;;;;;;;8.91;100.00;95674.22;5026179;28;20046;-69
2023/10/24 03:42:02;;;;;;;9.68;7.80;;;;;;;8.87;100.00;95678.88;5027917;28;20029;-69
2023/10/24 03:44:28;;;;;;;16.83;8.02;;;;;;;8.75;100.00;95686.22;5008923;28;20095;-70
2023/10/24 03:46:53;;;;;;;12.65;7.88;;;;;;;8.80;100.00;95688.59;5004866;28;20058;-69
2023/10/24 03:49:19;;;;;;;14.43;8.93;;;;;;;8.59;100.00;95683.00;5004856;28;20042;-71
2023/10/24 03:51:46;;;;;;;13.70;8.63;;;;;;;8.48;100.00;95687.56;5027140;28;20550;-70
2023/10/24 03:54:12;;;;;;;17.85;9.98;;;;;;;8.42;100.00;95681.66;5025195;28;20069;-70
2023/10/24 03:56:38;;;;;;;15.30;9.73;;;;;;;8.40;100.00;95673.06;5037195;28;20041;-70
2023/10/24 03:59:06;;;;;;;18.77;10.00;;;;;;;8.39;100.00;95683.19;5007433;28;20035;-69
2023/10/24 04:01:34;;;;;;;16.30;9.05;;;;;;;8.50;100.00;95683.31;5028563;28;20052;-70
2023/10/24 04:03:59;;;;;;;16.02;9.18;;;;;;;8.77;100.00;95677.66;5038644;28;20029;-70
2023/10/24 04:06:25;;;;;;;15.60;9.15;;;;;;;8.75;100.00;95671.78;5033789;28;20051;-71
2023/10/24 04:08:50;;;;;;;17.17;9.00;;;;;;;8.80;100.00;95671.41;5040618;28;20041;-70
2023/10/24 04:11:16;;;;;;;14.73;9.23;;;;;;;8.75;100.00;95675.31;4986549;28;20061;-70
2023/10/24 04:13:43;;;;;;;15.30;9.07;;;;;;;8.86;100.00;95666.38;5038683;28;20074;-70
2023/10/24 04:16:09;;;;;;;12.73;8.02;;;;;;;8.80;100.00;95653.13;5034952;28;20069;-70
2023/10/24 04:18:34;;;;;;;15.80;8.57;;;;;;;8.63;100.00;95659.22;5046682;28;20108;-71
2023/10/24 04:20:59;;;;;;;18.27;9.77;;;;;;;8.44;100.00;95659.47;5040203;28;20033;-70
2023/10/24 04:23:25;;;;;;;14.77;10.45;;;;;;;8.29;100.00;95662.06;5039163;28;20468;-70
2023/10/24 04:25:50;;;;;;;15.30;9.93;;;;;;;8.33;100.00;95668.31;5014702;28;20128;-70
2023/10/24 04:28:16;;;;;;;17.75;9.60;;;;;;;8.46;100.00;95652.47;5019831;28;20044;-69
2023/10/24 04:30:41;;;;;;;19.40;9.45;;;;;;;8.42;100.00;95652.44;5014577;28;20069;-70
2023/10/24 04:33:08;;;;;;;23.15;11.15;;;;;;;8.36;100.00;95653.16;5002213;28;20052;-71
2023/10/24 04:35:47;;;;;;;16.95;10.10;;;;;;;8.34;100.00;95658.97;5025212;28;20045;-71
2023/10/24 04:38:15;;;;;;;16.08;9.95;;;;;;;8.37;100.00;95655.50;5024518;28;20037;-71
2023/10/24 04:40:41;;;;;;;16.58;10.15;;;;;;;8.38;100.00;95640.69;5022114;28;20489;-72
2023/10/24 04:43:07;;;;;;;15.25;10.45;;;;;;;8.44;100.00;95654.00;5018911;28;20033;-71
2023/10/24 04:45:32;;;;;;;20.63;10.60;;;;;;;8.52;100.00;95666.56;5005795;28;20045;-71
2023/10/24 04:48:00;;;;;;;17.95;10.50;;;;;;;8.60;100.00;95659.97;5024701;28;20393;-70
2023/10/24 04:50:26;;;;;;;14.88;9.43;;;;;;;8.63;100.00;95648.31;5027955;28;20132;-70
2023/10/24 04:52:52;;;;;;;15.73;10.05;;;;;;;8.64;100.00;95654.53;5029134;28;20037;-72
2023/10/24 04:55:18;;;;;;;16.55;10.23;;;;;;;8.72;100.00;95645.25;5024716;28;20033;-70
2023/10/24 04:57:43;;;;;;;18.00;9.90;;;;;;;8.96;100.00;95641.88;5026647;28;20038;-69
2023/10/24 05:00:12;;;;;;;18.58;10.40;;;;;;;8.89;100.00;95638.31;5020443;28;20053;-71
2023/10/24 05:02:38;;;;;;;14.70;9.00;;;;;;;8.85;100.00;95635.56;5025467;28;20037;-70
2023/10/24 05:05:04;;;;;;;14.75;8.35;;;;;;;8.92;100.00;95627.41;5030674;28;20040;-71
2023/10/24 05:07:30;;;;;;;13.82;8.98;;;;;;;8.95;100.00;95613.00;5007616;28;20543;-70
2023/10/24 05:09:56;;;;;;;21.88;9.35;;;;;;;9.00;100.00;95603.66;5026196;28;20132;-70
2023/10/24 05:12:21;;;;;;;13.55;8.70;;;;;;;9.19;100.00;95608.81;5015675;28;20645;-70
2023/10/24 05:14:46;;;;;;;13.88;8.55;;;;;;;9.11;100.00;95587.31;5022254;28;20045;-69
2023/10/24 05:17:13;;;;;;;15.80;8.43;;;;;;;9.10;100.00;95586.53;5016274;28;20033;-68
2023/10/24 05:19:39;;;;;;;14.02;7.88;;;;;;;9.14;100.00;95590.06;5022731;28;20361;-69
2023/10/24 05:22:04;;;;;;;11.95;8.15;;;;;;;9.10;100.00;95577.56;5000857;28;20041;-72
2023/10/24 05:24:30;;;;;;;14.23;8.05;;;;;;;9.04;100.00;95581.81;5023793;28;20123;-71
2023/10/24 05:26:55;;;;;;;11.38;7.82;;;;;;;8.94;100.00;95584.13;5028538;28;20041;-71
2023/10/24 05:29:21;;;;;;;13.05;8.70;;;;;;;8.92;100.00;95589.19;5018911;28;21508;-71
2023/10/24 05:31:46;;;;;;;13.93;8.13;;;;;;;8.85;100.00;95594.63;5022235;28;20041;-71
2023/10/24 05:34:11;;;;;;;18.88;9.02;;;;;;;8.86;100.00;95593.47;5024752;28;20049;-71
2023/10/24 05:36:37;;;;;;;14.05;8.30;;;;;;;8.74;100.00;95582.88;5023494;28;20129;-70
2023/10/24 05:39:03;;;;;;;14.27;8.40;;;;;;;8.74;100.00;95582.88;5019337;28;20087;-71
2023/10/24 05:41:28;;;;;;;13.43;9.25;;;;;;;8.68;100.00;95576.19;5029246;28;20049;-69
2023/10/24 05:43:55;;;;;;;16.45;10.15;;;;;;;8.65;100.00;95566.81;5027691;28;20029;-70
2023/10/24 05:46:20;;;;;;;20.65;9.93;;;;;;;8.37;100.00;95565.47;5003392;28;20033;-70
2023/10/24 05:48:46;;;;;;;18.48;10.77;;;;;;;8.23;100.00;95557.19;5017143;28;20518;-70
2023/10/24 05:51:21;;;;;;;16.75;10.15;;;;;;;8.31;100.00;95568.91;5018061;28;20041;-71
2023/10/24 05:53:46;;;;;;;16.48;10.23;;;;;;;8.51;100.00;95575.69;5019691;28;20128;-72
2023/10/24 05:56:12;;;;;;;18.17;10.15;;;;;;;8.64;100.00;95573.44;5012920;28;20065;-70
2023/10/24 05:58:37;;;;;;;19.30;10.00;;;;;;;8.72;100.00;95574.28;5022002;28;20046;-71
2023/10/24 06:01:03;;;;;;;15.00;9.02;;;;;;;8.71;100.00;95580.88;5020191;28;20502;-71
2023/10/24 06:03:28;;;;;;;12.70;9.15;;;;;;;8.77;100.00;95574.69;5018028;28;20107;-71
2023/10/24 06:05:53;;;;;;;15.65;9.50;;;;;;;8.70;100.00;95582.06;5032428;28;20128;-69
2023/10/24 06:08:19;;;;;;;13.82;9.27;;;;;;;8.68;100.00;95578.91;5005040;28;20464;-70
2023/10/24 06:10:54;;;;;;;21.20;9.93;;;;;;;8.38;100.00;95577.94;5019792;28;20090;-71
2023/10/24 06:13:19;;;;;;;18.00;10.88;;;;;;;8.28;100.00;95580.59;5016459;28;20045;-71
2023/10/24 06:15:44;;;;;;;14.88;10.15;;;;;;;8.36;100.00;95580.25;5021265;28;20037;-71
2023/10/24 06:18:10;;;;;;;16.70;9.45;;;;;;;8.44;100.00;95588.53;5018300;28;20081;-70
2023/10/24 06:20:37;;;;;;;13.68;9.07;;;;;;;8.53;100.00;95595.19;5023505;28;20071;-71
2023/10/24 06:23:05;;;;;;;15.30;10.25;;;;;;;8.64;100.00;95592.53;5018894;28;20030;-75
2023/10/24 06:25:39;;;;;;;19.08;9.02;;;;;;;8.75;100.00;95596.13;5021319;28;20088;-71
2023/10/24 06:28:05;;;;;;;17.25;10.75;;;;;;;8.68;100.00;95612.47;5012783;28;20037;-72
2023/10/24 06:30:34;;;;;;;13.27;8.30;;;;;;;8.62;100.00;95594.88;5022252;28;20060;-71
2023/10/24 06:33:00;;;;;;;18.30;11.13;;;;;;;8.72;100.00;95609.75;5021022;28;20041;-71
2023/10/24 06:35:25;;;;;;;14.63;9.45;;;;;;;8.69;100.00;95605.06;5016162;28;20041;-70
2023/10/24 06:37:51;;;;;;;49.35;31.35;;;;;;;8.63;100.00;95610.09;5031930;28;20065;-72
2023/10/24 06:40:16;;;;;;;27.83;15.48;;;;;;;8.39;100.00;95586.88;5031276;28;20044;-71
2023/10/24 06:42:42;;;;;;;20.65;12.10;;;;;;;8.44;100.00;95591.25;5039047;28;20046;-69
2023/10/24 06:45:08;;;;;;;18.05;10.10;;;;;;;8.53;100.00;95597.94;5020489;28;20132;-71
2023/10/24 06:47:33;;;;;;;20.73;11.13;;;;;;;8.59;100.00;95601.88;5024926;28;20045;-70
2023/10/24 06:49:59;;;;;;;27.77;19.10;;;;;;;8.64;100.00;95600.72;5024731;28;20151;-70
2023/10/24 06:52:24;;;;;;;34.25;24.98;;;;;;;8.70;100.00;95598.44;5002264;28;20041;-71
2023/10/24 06:54:50;;;;;;;22.48;13.57;;;;;;;8.85;100.00;95588.38;5024560;28;20041;-71
2023/10/24 06:57:17;;;;;;;14.93;9.45;;;;;;;8.96;100.00;95587.25;5023992;28;20044;-71
2023/10/24 06:59:42;;;;;;;15.90;9.93;;;;;;;9.06;100.00;95585.75;5024432;28;20037;-71
2023/10/24 07:02:07;;;;;;;20.67;13.20;;;;;;;9.13;100.00;95602.16;5021032;28;20037;-71
2023/10/24 07:04:33;;;;;;;21.90;12.38;;;;;;;9.02;100.00;95598.63;5024498;28;20132;-70
2023/10/24 07:06:58;;;;;;;33.55;21.67;;;;;;;9.05;100.00;95606.03;5007865;28;20037;-70
2023/10/24 07:09:23;;;;;;;38.65;25.80;;;;;;;9.04;100.00;95599.00;5003383;28;20187;-71
2023/10/24 07:11:49;;;;;;;50.42;33.22;;;;;;;9.14;100.00;95592.03;5024291;28;20091;-71
2023/10/24 07:14:14;;;;;;;18.75;12.65;;;;;;;9.16;100.00;95597.88;5018582;28;20131;-72
2023/10/24 07:16:39;;;;;;;20.13;10.85;;;;;;;9.14;100.00;95597.47;5023206;28;20044;-70
2023/10/24 07:19:05;;;;;;;31.55;21.65;;;;;;;9.18;100.00;95590.06;5001305;28;20099;-71
2023/10/24 07:21:30;;;;;;;26.15;17.30;;;;;;;9.32;100.00;95600.28;5023868;28;20509;-71
2023/10/24 07:23:56;;;;;;;21.08;15.05;;;;;;;9.57;100.00;95590.19;5024272;28;20044;-70
2023/10/24 07:26:22;;;;;;;18.15;12.13;;;;;;;9.65;100.00;95598.41;5019819;28;20473;-71
2023/10/24 07:28:47;;;;;;;16.63;10.32;;;;;;;9.67;100.00;95591.41;5024104;28;20131;-71
2023/10/24 07:31:13;;;;;;;17.05;9.30;;;;;;;9.71;100.00;95584.00;5020846;28;20132;-71
2023/10/24 07:33:38;;;;;;;13.57;9.55;;;;;;;9.73;100.00;95578.91;5025186;28;20500;-70
2023/10/24 07:36:08;;;;;;;14.57;9.27;;;;;;;9.66;100.00;95567.97;5020746;28;20045;-73
2023/10/24 07:38:33;;;;;;;14.75;8.73;;;;;;;9.78;100.00;95575.03;5024113;28;20072;-70
2023/10/24 07:40:59;;;;;;;15.13;8.93;;;;;;;9.66;100.00;95575.38;5023648;28;20069;-70
2023/10/24 07:43:24;;;;;;;12.10;7.72;;;;;;;9.63;100.00;95574.19;5019217;28;20041;-71
2023/10/24 07:45:50;;;;;;;13.20;8.15;;;;;;;9.71;100.00;95566.81;5023274;28;20037;-69
2023/10/24 07:48:16;;;;;;;16.27;9.95;;;;;;;9.86;100.00;95582.06;5020121;28;20141;-70
2023/10/24 07:50:55;;;;;;;14.32;8.35;;;;;;;9.87;100.00;95577.38;5024182;28;20487;-71
2023/10/24 07:53:21;;;;;;;14.98;8.60;;;;;;;9.83;100.00;95580.09;5019030;28;20042;-70
2023/10/24 07:55:47;;;;;;;12.10;8.13;;;;;;;9.89;100.00;95585.97;5023164;28;20042;-70
2023/10/24 07:58:13;;;;;;;14.23;8.05;;;;;;;10.08;100.00;95573.84;5019078;28;20091;-69
2023/10/24 08:00:38;;;;;;;13.57;8.48;;;;;;;10.08;100.00;95574.66;5024626;28;20424;-69
2023/10/24 08:03:03;;;;;;;16.02;7.93;;;;;;;10.16;100.00;95578.16;5020481;28;20064;-71
2023/10/24 08:05:29;;;;;;;22.92;14.50;;;;;;;10.14;100.00;95580.53;5033604;28;20045;-70
2023/10/24 08:07:54;;;;;;;18.48;12.60;;;;;;;10.07;100.00;95584.03;5013976;28;20041;-69
2023/10/24 08:10:20;;;;;;;20.15;10.57;;;;;;;9.99;100.00;95582.44;5026518;28;20088;-72
2023/10/24 08:12:45;;;;;;;19.00;10.60;;;;;;;9.89;100.00;95585.97;5026756;28;20136;-71
2023/10/24 08:15:11;;;;;;;17.65;11.88;;;;;;;9.89;100.00;95594.19;5019643;28;20060;-71
2023/10/24 08:17:36;;;;;;;25.85;11.77;;;;;;;9.92;100.00;95594.19;5023972;28;20061;-71
2023/10/24 08:20:04;;;;;;;18.95;10.95;;;;;;;10.04;100.00;95597.69;5005781;28;20037;-70
2023/10/24 08:22:29;;;;;;;21.92;11.13;;;;;;;10.23;100.00;95604.75;5020531;28;20042;-71
2023/10/24 08:24:55;;;;;;;18.83;10.55;;;;;;;10.35;100.00;95607.09;5022414;28;20060;-69
2023/10/24 08:27:20;;;;;;;17.08;8.98;;;;;;;10.48;100.00;95616.50;5018795;28;20037;-71
2023/10/24 08:29:46;;;;;;;15.52;8.95;;;;;;;10.46;100.00;95615.31;5029638;28;20037;-71
2023/10/24 08:32:11;;;;;;;14.35;7.82;;;;;;;10.35;100.00;95609.84;5019229;28;20129;-71
2023/10/24 08:34:37;;;;;;;12.20;7.95;;;;;;;10.43;100.00;95611.41;5023778;28;20045;-70
2023/10/24 08:37:05;;;;;;;16.98;8.13;;;;;;;10.57;100.00;95613.38;5021269;28;20030;-71
2023/10/24 08:39:30;;;;;;;13.50;7.95;;;;;;;10.63;100.00;95611.00;5021473;28;20037;-69
2023/10/24 08:41:59;;;;;;;15.48;8.35;;;;;;;10.69;100.00;95604.72;5023408;28;20087;-69
2023/10/24 08:44:26;;;;;;;14.95;8.82;;;;;;;10.78;100.00;95612.53;5018832;28;20048;-70
2023/10/24 08:46:52;;;;;;;11.45;7.95;;;;;;;10.88;100.00;95608.22;5015169;28;20485;-71
2023/10/24 08:49:19;;;;;;;14.98;7.65;;;;;;;10.98;100.00;95607.41;5018194;28;20045;-70
2023/10/24 08:51:45;;;;;;;13.50;7.78;;;;;;;11.07;100.00;95610.53;5005806;28;20049;-71
2023/10/24 08:54:11;;;;;;;13.85;7.45;;;;;;;11.14;100.00;95620.66;5000517;28;20128;-70
2023/10/24 08:56:38;;;;;;;10.70;6.63;;;;;;;11.18;100.00;95624.19;5022425;28;20427;-71
2023/10/24 08:59:09;;;;;;;12.80;6.55;;;;;;;11.18;100.00;95629.69;5019997;28;20527;-73
2023/10/24 09:01:40;;;;;;;14.88;8.98;;;;;;;11.16;100.00;95628.50;5022780;28;20038;-71
2023/10/24 09:04:06;;;;;;;20.38;10.95;;;;;;;11.07;100.00;95631.66;5017852;28;20042;-71
2023/10/24 09:06:36;;;;;;;22.98;14.68;;;;;;;11.03;100.00;95628.91;5021131;28;20064;-71
2023/10/24 09:09:02;;;;;;;15.75;10.98;;;;;;;10.85;100.00;95628.97;5018764;28;20052;-72
2023/10/24 09:12:00;;;;;;;11.13;8.23;;;;;;;10.76;100.00;95631.31;5030019;28;20041;-71
2023/10/24 09:14:28;;;;;;;18.67;9.45;;;;;;;10.54;100.00;95624.31;5021978;28;20045;-69
2023/10/24 09:16:55;;;;;;;18.70;9.90;;;;;;;10.43;100.00;95624.31;5015400;28;20443;-71
2023/10/24 09:19:22;;;;;;;16.02;9.80;;;;;;;10.29;100.00;95625.84;5000267;28;20042;-70
2023/10/24 09:21:49;;;;;;;25.33;17.83;;;;;;;10.26;100.00;95620.38;5021872;28;20323;-70
2023/10/24 09:24:15;;;;;;;17.63;12.90;;;;;;;10.36;100.00;95624.34;5017204;28;20041;-70
2023/10/24 09:26:49;;;;;;;18.83;14.13;;;;;;;10.54;100.00;95627.84;5021485;28;20042;-70
2023/10/24 09:29:17;;;;;;;15.45;10.63;;;;;;;10.66;100.00;95626.63;5016692;28;20124;-69
2023/10/24 09:31:42;;;;;;;13.30;9.88;;;;;;;10.76;100.00;95628.59;5022295;28;20128;-71
2023/10/24 09:34:07;;;;;;;18.90;10.82;;;;;;;10.93;100.00;95631.69;5017684;28;20105;-70
2023/10/24 09:36:34;;;;;;;15.65;9.80;;;;;;;11.07;100.00;95640.66;5021805;28;20041;-70
2023/10/24 09:38:59;;;;;;;15.40;9.88;;;;;;;11.20;100.00;95635.53;5020963;28;20124;-70
2023/10/24 09:41:25;;;;;;;16.98;10.13;;;;;;;11.32;100.00;95636.28;5017452;28;20556;-70
2023/10/24 09:43:55;;;;;;;14.40;8.50;;;;;;;11.42;100.00;95638.19;5021197;28;20037;-70
2023/10/24 09:46:23;;;;;;;11.90;7.90;;;;;;;11.52;100.00;95642.84;4999045;28;20081;-70
2023/10/24 09:48:50;;;;;;;16.13;7.97;;;;;;;11.60;100.00;95640.88;5021318;28;20088;-70
2023/10/24 09:51:21;;;;;;;16.08;8.38;;;;;;;11.70;100.00;95631.78;5016045;28;20045;-71
2023/10/24 09:53:47;;;;;;;20.58;11.32;;;;;;;11.73;100.00;95632.97;5021583;28;20041;-71
2023/10/24 09:56:13;;;;;;;20.08;9.13;;;;;;;11.81;100.00;95635.28;5015949;28;20041;-70
2023/10/24 09:58:41;;;;;;;17.45;9.13;;;;;;;11.85;100.00;95641.50;5020891;28;20051;-70
2023/10/24 10:01:08;;;;;;;18.55;9.35;;;;;;;11.89;100.00;95644.25;5014827;28;20086;-70
2023/10/24 10:03:35;;;;;;;15.32;8.95;;;;;;;11.90;100.00;95645.00;5021204;28;20042;-70
2023/10/24 10:06:08;;;;;;;17.73;9.52;;;;;;;11.97;100.00;95634.78;5002675;28;20038;-71
2023/10/24 10:08:36;;;;;;;15.75;8.80;;;;;;;12.06;100.00;95623.38;5016874;28;20065;-71
2023/10/24 10:11:05;;;;;;;15.80;8.82;;;;;;;12.12;100.00;95620.97;5024880;28;20037;-72
2023/10/24 10:13:35;;;;;;;14.40;8.15;;;;;;;12.24;100.00;95618.56;5022715;28;20073;-70
2023/10/24 10:16:15;;;;;;;10.85;8.25;;;;;;;12.26;100.00;95618.13;5027169;28;20041;-70
2023/10/24 10:18:58;;;;;;;14.45;8.43;;;;;;;12.23;100.00;95608.75;5036664;28;20045;-70
2023/10/24 10:21:47;;;;;;;15.00;7.88;;;;;;;12.22;100.00;95615.41;5017091;28;20439;-70
2023/10/24 10:24:54;;;;;;;15.57;9.05;;;;;;;12.12;100.00;95608.06;5014852;28;20037;-69
2023/10/24 10:27:38;;;;;;;14.73;8.70;;;;;;;12.07;100.00;95619.47;4932738;28;20048;-70
2023/10/24 10:30:10;;;;;;;13.95;9.27;;;;;;;12.01;100.00;95616.38;4998051;28;20141;-70
2023/10/24 10:32:53;;;;;;;17.50;9.25;;;;;;;11.99;100.00;95604.22;5000499;28;20480;-70
2023/10/24 10:35:19;;;;;;;15.00;8.98;;;;;;;11.99;100.00;95609.69;5016112;28;20099;-70
2023/10/24 10:38:03;;;;;;;15.13;9.00;;;;;;;11.95;100.00;95606.22;5020132;28;20400;-69
2023/10/24 10:40:29;;;;;;;22.80;14.20;;;;;;;11.93;100.00;95603.09;5019154;28;20049;-69
2023/10/24 10:42:55;;;;;;;16.55;11.00;;;;;;;11.90;100.00;95607.41;5021133;28;20041;-69
2023/10/24 10:45:30;;;;;;;20.73;10.38;;;;;;;11.86;100.00;95612.88;5015822;28;20041;-69
2023/10/24 10:48:04;;;;;;;16.05;9.68;;;;;;;11.86;100.00;95615.63;5028666;28;20122;-71
2023/10/24 10:50:37;;;;;;;13.52;9.40;;;;;;;11.91;100.00;95619.94;5004151;28;20182;-70
2023/10/24 10:53:42;;;;;;;13.85;9.27;;;;;;;11.75;100.00;95614.91;5018097;28;20072;-71
2023/10/24 10:56:11;;;;;;;16.55;8.77;;;;;;;11.56;100.00;95624.44;4998332;28;20033;-70
2023/10/24 10:58:42;;;;;;;17.73;10.65;;;;;;;11.11;100.00;95621.47;4990132;28;20081;-69
2023/10/24 11:01:10;;;;;;;16.58;11.07;;;;;;;11.03;100.00;95622.66;5016370;28;20060;-70
2023/10/24 11:03:38;;;;;;;22.73;13.70;;;;;;;10.95;100.00;95616.44;5020155;28;20096;-70
2023/10/24 11:06:17;;;;;;;20.42;14.57;;;;;;;10.96;100.00;95617.19;5014918;28;20041;-70
2023/10/24 11:08:49;;;;;;;21.65;13.50;;;;;;;10.96;100.00;95617.97;5020707;28;20395;-70
2023/10/24 11:11:19;;;;;;;25.58;14.90;;;;;;;11.00;100.00;95607.81;5017784;28;20038;-70
2023/10/24 11:13:47;;;;;;;27.67;14.60;;;;;;;11.00;100.00;95610.56;5025847;28;20038;-70
2023/10/24 11:16:13;;;;;;;25.38;17.17;;;;;;;11.02;100.00;95610.94;4997619;28;20041;-70
2023/10/24 11:18:40;;;;;;;19.88;12.90;;;;;;;11.29;100.00;95604.97;5020867;28;20068;-69